sensor_id;sensor_type;location;lat;lon;timestamp;P1;durP1;ratioP1;P2;durP2;ratioP2
18647;SDS011;9453;50.294;18.644;2024-01-15T05:03:08;4.33;;;2.07;;
18647;SDS011;9453;50.294;18.644;2024-01-15T05:05:35;3.43;;;1.93;;
18647;SDS011;9453;50.294;18.644;2024-01-15T05:08:02;6.50;;;2.30;;
18647;SDS011;9453;50.294;18.644;2024-01-15T05:10:29;3.97;;;2.27;;
18647;SDS011;9453;50.294;18.644;2024-01-15T05:12:56;5.47;;;2.33;;
18647;SDS011;9453;50.294;18.644;2024-01-15T05:15:23;6.53;;;2.03;;
18647;SDS011;9453;50.294;18.644;2024-01-15T05:17:50;4.17;;;2.20;;
18647;SDS011;9453;50.294;18.644;2024-01-15T05:20:18;5.23;;;2.17;;
18647;SDS011;9453;50.294;18.644;2024-01-15T05:22:45;4.30;;;2.20;;
18647;SDS011;9453;50.294;18.644;2024-01-15T05:25:12;8.40;;;2.40;;
18647;SDS011;9453;50.294;18.644;2024-01-15T05:27:39;4.60;;;2.43;;
18647;SDS011;9453;50.294;18.644;2024-01-15T05:30:11;3.77;;;2.20;;
18647;SDS011;9453;50.294;18.644;2024-01-15T05:32:39;6.17;;;2.30;;
18647;SDS011;9453;50.294;18.644;2024-01-15T05:35:05;3.97;;;2.00;;
18647;SDS011;9453;50.294;18.644;2024-01-15T05:37:34;6.17;;;2.77;;
18647;SDS011;9453;50.294;18.644;2024-01-15T05:40:01;5.47;;;2.30;;
18647;SDS011;9453;50.294;18.644;2024-01-15T05:42:31;5.40;;;2.20;;
18647;SDS011;9453;50.294;18.644;2024-01-15T05:44:58;8.03;;;2.70;;
18647;SDS011;9453;50.294;18.644;2024-01-15T05:47:27;5.67;;;2.83;;
18647;SDS011;9453;50.294;18.644;2024-01-15T05:49:54;4.93;;;2.33;;
18647;SDS011;9453;50.294;18.644;2024-01-15T05:52:21;7.83;;;2.80;;
18647;SDS011;9453;50.294;18.644;2024-01-15T05:54:49;5.87;;;3.07;;
18647;SDS011;9453;50.294;18.644;2024-01-15T05:57:16;4.70;;;1.97;;
18647;SDS011;9453;50.294;18.644;2024-01-15T05:59:44;5.70;;;2.63;;
18647;SDS011;9453;50.294;18.644;2024-01-15T06:02:11;5.70;;;2.60;;
18647;SDS011;9453;50.294;18.644;2024-01-15T06:04:38;5.10;;;2.43;;
18647;SDS011;9453;50.294;18.644;2024-01-15T06:07:05;4.63;;;2.77;;
18647;SDS011;9453;50.294;18.644;2024-01-15T06:09:35;5.00;;;2.43;;
18647;SDS011;9453;50.294;18.644;2024-01-15T06:12:05;4.73;;;2.37;;
18647;SDS011;9453;50.294;18.644;2024-01-15T06:14:38;6.77;;;2.60;;
18647;SDS011;9453;50.294;18.644;2024-01-15T06:17:06;5.57;;;3.20;;
18647;SDS011;9453;50.294;18.644;2024-01-15T06:19:33;7.40;;;2.30;;
18647;SDS011;9453;50.294;18.644;2024-01-15T06:22:00;6.50;;;2.60;;
18647;SDS011;9453;50.294;18.644;2024-01-15T06:24:27;6.47;;;2.93;;
18647;SDS011;9453;50.294;18.644;2024-01-15T06:26:55;6.80;;;2.70;;
18647;SDS011;9453;50.294;18.644;2024-01-15T06:29:24;8.93;;;3.50;;
18647;SDS011;9453;50.294;18.644;2024-01-15T06:31:52;6.33;;;2.77;;
18647;SDS011;9453;50.294;18.644;2024-01-15T06:34:19;7.20;;;2.37;;
18647;SDS011;9453;50.294;18.644;2024-01-15T06:36:46;7.43;;;2.77;;
18647;SDS011;9453;50.294;18.644;2024-01-15T06:39:14;7.17;;;3.23;;
18647;SDS011;9453;50.294;18.644;2024-01-15T06:41:41;6.97;;;2.87;;
18647;SDS011;9453;50.294;18.644;2024-01-15T06:44:15;5.40;;;2.70;;
18647;SDS011;9453;50.294;18.644;2024-01-15T06:46:43;5.97;;;2.77;;
18647;SDS011;9453;50.294;18.644;2024-01-15T06:49:11;6.83;;;2.80;;
18647;SDS011;9453;50.294;18.644;2024-01-15T06:51:38;5.63;;;2.43;;
18647;SDS011;9453;50.294;18.644;2024-01-15T06:54:08;5.63;;;2.70;;
18647;SDS011;9453;50.294;18.644;2024-01-15T06:56:35;6.77;;;2.77;;
18647;SDS011;9453;50.294;18.644;2024-01-15T06:59:02;4.90;;;2.73;;
18647;SDS011;9453;50.294;18.644;2024-01-15T07:01:29;8.47;;;3.17;;
18647;SDS011;9453;50.294;18.644;2024-01-15T07:03:58;6.47;;;2.60;;
18647;SDS011;9453;50.294;18.644;2024-01-15T07:06:25;6.27;;;2.60;;
18647;SDS011;9453;50.294;18.644;2024-01-15T07:08:52;5.87;;;2.67;;
18647;SDS011;9453;50.294;18.644;2024-01-15T07:11:19;4.67;;;2.17;;
18647;SDS011;9453;50.294;18.644;2024-01-15T07:13:48;6.70;;;2.70;;
18647;SDS011;9453;50.294;18.644;2024-01-15T07:16:15;8.70;;;2.93;;
18647;SDS011;9453;50.294;18.644;2024-01-15T07:18:42;7.57;;;3.40;;
18647;SDS011;9453;50.294;18.644;2024-01-15T07:21:10;8.83;;;3.57;;
18647;SDS011;9453;50.294;18.644;2024-01-15T07:23:37;6.40;;;2.73;;
18647;SDS011;9453;50.294;18.644;2024-01-15T07:26:05;6.83;;;3.13;;
18647;SDS011;9453;50.294;18.644;2024-01-15T07:28:32;7.23;;;3.10;;
18647;SDS011;9453;50.294;18.644;2024-01-15T07:30:59;6.77;;;3.13;;
18647;SDS011;9453;50.294;18.644;2024-01-15T07:33:29;6.60;;;2.80;;
18647;SDS011;9453;50.294;18.644;2024-01-15T07:35:55;5.90;;;2.63;;
18647;SDS011;9453;50.294;18.644;2024-01-15T07:38:23;11.40;;;3.63;;
18647;SDS011;9453;50.294;18.644;2024-01-15T07:40:50;8.77;;;3.60;;
18647;SDS011;9453;50.294;18.644;2024-01-15T07:43:18;13.80;;;4.13;;
18647;SDS011;9453;50.294;18.644;2024-01-15T07:45:45;10.60;;;5.27;;
18647;SDS011;9453;50.294;18.644;2024-01-15T07:48:12;8.67;;;3.63;;
18647;SDS011;9453;50.294;18.644;2024-01-15T07:50:39;8.50;;;4.10;;
18647;SDS011;9453;50.294;18.644;2024-01-15T07:53:06;8.63;;;3.40;;
18647;SDS011;9453;50.294;18.644;2024-01-15T07:55:35;9.90;;;4.07;;
18647;SDS011;9453;50.294;18.644;2024-01-15T07:58:02;10.10;;;3.33;;
18647;SDS011;9453;50.294;18.644;2024-01-15T08:00:30;12.10;;;4.37;;
18647;SDS011;9453;50.294;18.644;2024-01-15T08:02:57;8.93;;;3.73;;
18647;SDS011;9453;50.294;18.644;2024-01-15T08:05:24;9.17;;;4.00;;
18647;SDS011;9453;50.294;18.644;2024-01-15T08:07:51;12.50;;;4.23;;
18647;SDS011;9453;50.294;18.644;2024-01-15T08:10:18;8.93;;;4.30;;
18647;SDS011;9453;50.294;18.644;2024-01-15T08:12:46;13.43;;;4.83;;
18647;SDS011;9453;50.294;18.644;2024-01-15T08:15:13;11.33;;;4.43;;
18647;SDS011;9453;50.294;18.644;2024-01-15T08:17:40;12.93;;;4.87;;
18647;SDS011;9453;50.294;18.644;2024-01-15T08:20:07;14.07;;;5.10;;
18647;SDS011;9453;50.294;18.644;2024-01-15T08:22:35;12.50;;;4.77;;
18647;SDS011;9453;50.294;18.644;2024-01-15T08:25:02;14.37;;;4.70;;
18647;SDS011;9453;50.294;18.644;2024-01-15T08:27:29;10.60;;;3.97;;
18647;SDS011;9453;50.294;18.644;2024-01-15T08:29:58;7.90;;;3.33;;
18647;SDS011;9453;50.294;18.644;2024-01-15T08:32:25;11.60;;;4.00;;
18647;SDS011;9453;50.294;18.644;2024-01-15T08:34:56;19.33;;;7.37;;
18647;SDS011;9453;50.294;18.644;2024-01-15T08:37:23;12.90;;;4.47;;
18647;SDS011;9453;50.294;18.644;2024-01-15T08:39:51;15.43;;;6.53;;
18647;SDS011;9453;50.294;18.644;2024-01-15T08:42:18;14.23;;;5.87;;
18647;SDS011;9453;50.294;18.644;2024-01-15T08:44:44;12.83;;;4.90;;
18647;SDS011;9453;50.294;18.644;2024-01-15T08:47:13;12.20;;;5.57;;
18647;SDS011;9453;50.294;18.644;2024-01-15T08:49:40;11.93;;;5.10;;
18647;SDS011;9453;50.294;18.644;2024-01-15T08:52:08;12.20;;;4.23;;
18647;SDS011;9453;50.294;18.644;2024-01-15T08:54:35;13.80;;;5.53;;
18647;SDS011;9453;50.294;18.644;2024-01-15T08:57:02;11.77;;;4.63;;
18647;SDS011;9453;50.294;18.644;2024-01-15T08:59:29;7.70;;;4.00;;
18647;SDS011;9453;50.294;18.644;2024-01-15T09:01:56;11.20;;;4.27;;
18647;SDS011;9453;50.294;18.644;2024-01-15T09:04:24;10.80;;;4.77;;
18647;SDS011;9453;50.294;18.644;2024-01-15T09:06:51;15.40;;;4.50;;
18647;SDS011;9453;50.294;18.644;2024-01-15T09:09:18;10.03;;;4.63;;
18647;SDS011;9453;50.294;18.644;2024-01-15T09:11:45;10.63;;;4.03;;
18647;SDS011;9453;50.294;18.644;2024-01-15T09:14:12;12.17;;;4.93;;
18647;SDS011;9453;50.294;18.644;2024-01-15T09:16:39;13.70;;;5.23;;
18647;SDS011;9453;50.294;18.644;2024-01-15T09:19:06;15.33;;;6.40;;
18647;SDS011;9453;50.294;18.644;2024-01-15T09:21:34;16.70;;;6.30;;
18647;SDS011;9453;50.294;18.644;2024-01-15T09:24:01;17.03;;;6.63;;
18647;SDS011;9453;50.294;18.644;2024-01-15T09:26:28;13.43;;;5.80;;
18647;SDS011;9453;50.294;18.644;2024-01-15T09:28:55;13.10;;;6.30;;
18647;SDS011;9453;50.294;18.644;2024-01-15T09:31:23;15.70;;;5.70;;
18647;SDS011;9453;50.294;18.644;2024-01-15T09:33:50;10.50;;;5.40;;
18647;SDS011;9453;50.294;18.644;2024-01-15T09:36:21;13.00;;;5.63;;
18647;SDS011;9453;50.294;18.644;2024-01-15T09:38:49;15.87;;;5.70;;
18647;SDS011;9453;50.294;18.644;2024-01-15T09:41:16;12.67;;;5.73;;
18647;SDS011;9453;50.294;18.644;2024-01-15T09:43:43;14.53;;;5.50;;
18647;SDS011;9453;50.294;18.644;2024-01-15T09:46:11;16.47;;;6.50;;
18647;SDS011;9453;50.294;18.644;2024-01-15T09:48:38;11.07;;;5.27;;
18647;SDS011;9453;50.294;18.644;2024-01-15T09:51:05;17.13;;;6.03;;
18647;SDS011;9453;50.294;18.644;2024-01-15T09:53:33;14.77;;;5.30;;
18647;SDS011;9453;50.294;18.644;2024-01-15T09:56:01;17.40;;;5.97;;
18647;SDS011;9453;50.294;18.644;2024-01-15T09:58:28;13.77;;;5.93;;
18647;SDS011;9453;50.294;18.644;2024-01-15T10:00:56;17.43;;;6.33;;
18647;SDS011;9453;50.294;18.644;2024-01-15T10:03:23;16.63;;;6.50;;
18647;SDS011;9453;50.294;18.644;2024-01-15T10:05:50;13.13;;;5.43;;
18647;SDS011;9453;50.294;18.644;2024-01-15T10:08:17;16.83;;;5.90;;
18647;SDS011;9453;50.294;18.644;2024-01-15T10:10:45;17.20;;;6.73;;
18647;SDS011;9453;50.294;18.644;2024-01-15T10:13:13;14.33;;;6.00;;
18647;SDS011;9453;50.294;18.644;2024-01-15T10:15:41;12.97;;;5.80;;
18647;SDS011;9453;50.294;18.644;2024-01-15T10:18:12;15.50;;;5.70;;
18647;SDS011;9453;50.294;18.644;2024-01-15T10:20:39;18.13;;;6.27;;
18647;SDS011;9453;50.294;18.644;2024-01-15T10:23:07;12.03;;;5.50;;
18647;SDS011;9453;50.294;18.644;2024-01-15T10:25:35;14.87;;;5.30;;
18647;SDS011;9453;50.294;18.644;2024-01-15T10:28:08;12.00;;;5.60;;
18647;SDS011;9453;50.294;18.644;2024-01-15T10:30:37;15.33;;;6.00;;
18647;SDS011;9453;50.294;18.644;2024-01-15T10:33:04;13.23;;;5.80;;
18647;SDS011;9453;50.294;18.644;2024-01-15T10:35:31;13.17;;;5.57;;
18647;SDS011;9453;50.294;18.644;2024-01-15T10:37:59;14.77;;;5.63;;
18647;SDS011;9453;50.294;18.644;2024-01-15T10:40:26;12.77;;;5.47;;
18647;SDS011;9453;50.294;18.644;2024-01-15T10:42:54;17.60;;;6.27;;
18647;SDS011;9453;50.294;18.644;2024-01-15T10:45:24;17.20;;;6.43;;
18647;SDS011;9453;50.294;18.644;2024-01-15T10:47:52;13.43;;;5.93;;
18647;SDS011;9453;50.294;18.644;2024-01-15T10:50:23;14.37;;;6.20;;
18647;SDS011;9453;50.294;18.644;2024-01-15T10:52:50;15.63;;;6.43;;
18647;SDS011;9453;50.294;18.644;2024-01-15T10:55:18;17.57;;;6.43;;
18647;SDS011;9453;50.294;18.644;2024-01-15T10:57:46;18.23;;;6.00;;
18647;SDS011;9453;50.294;18.644;2024-01-15T11:00:15;11.87;;;5.73;;
18647;SDS011;9453;50.294;18.644;2024-01-15T11:02:42;14.17;;;5.73;;
18647;SDS011;9453;50.294;18.644;2024-01-15T11:05:11;18.07;;;5.90;;
18647;SDS011;9453;50.294;18.644;2024-01-15T11:07:39;15.57;;;5.80;;
18647;SDS011;9453;50.294;18.644;2024-01-15T11:10:09;11.80;;;5.67;;
18647;SDS011;9453;50.294;18.644;2024-01-15T11:13:10;14.63;;;5.57;;
18647;SDS011;9453;50.294;18.644;2024-01-15T11:15:56;11.37;;;5.17;;
18647;SDS011;9453;50.294;18.644;2024-01-15T11:18:26;14.67;;;6.00;;
18647;SDS011;9453;50.294;18.644;2024-01-15T11:23:52;14.33;;;5.50;;
18647;SDS011;9453;50.294;18.644;2024-01-15T11:26:28;12.57;;;5.40;;
18647;SDS011;9453;50.294;18.644;2024-01-15T11:28:55;15.57;;;5.97;;
18647;SDS011;9453;50.294;18.644;2024-01-15T11:31:26;12.87;;;5.30;;
18647;SDS011;9453;50.294;18.644;2024-01-15T11:33:54;13.27;;;5.57;;
18647;SDS011;9453;50.294;18.644;2024-01-15T11:39:40;15.33;;;5.67;;
18647;SDS011;9453;50.294;18.644;2024-01-15T11:42:09;11.67;;;4.90;;
18647;SDS011;9453;50.294;18.644;2024-01-15T11:44:37;15.53;;;5.40;;
18647;SDS011;9453;50.294;18.644;2024-01-15T11:47:05;9.43;;;4.47;;
18647;SDS011;9453;50.294;18.644;2024-01-15T11:49:42;13.70;;;5.60;;
18647;SDS011;9453;50.294;18.644;2024-01-15T11:52:26;14.60;;;5.53;;
18647;SDS011;9453;50.294;18.644;2024-01-15T11:54:59;12.47;;;5.47;;
18647;SDS011;9453;50.294;18.644;2024-01-15T11:57:33;15.67;;;5.70;;
18647;SDS011;9453;50.294;18.644;2024-01-15T12:00:07;14.97;;;5.63;;
18647;SDS011;9453;50.294;18.644;2024-01-15T12:02:35;15.17;;;6.57;;
18647;SDS011;9453;50.294;18.644;2024-01-15T12:05:03;15.33;;;6.60;;
18647;SDS011;9453;50.294;18.644;2024-01-15T12:07:32;14.57;;;5.83;;
18647;SDS011;9453;50.294;18.644;2024-01-15T12:09:59;12.47;;;5.57;;
18647;SDS011;9453;50.294;18.644;2024-01-15T12:12:27;21.67;;;5.77;;
18647;SDS011;9453;50.294;18.644;2024-01-15T12:15:01;14.57;;;5.27;;
18647;SDS011;9453;50.294;18.644;2024-01-15T12:17:28;12.27;;;5.40;;
18647;SDS011;9453;50.294;18.644;2024-01-15T12:19:56;17.50;;;6.53;;
18647;SDS011;9453;50.294;18.644;2024-01-15T12:22:23;15.27;;;5.20;;
18647;SDS011;9453;50.294;18.644;2024-01-15T12:24:52;13.40;;;5.37;;
18647;SDS011;9453;50.294;18.644;2024-01-15T12:27:20;15.63;;;5.40;;
18647;SDS011;9453;50.294;18.644;2024-01-15T12:29:47;12.70;;;4.93;;
18647;SDS011;9453;50.294;18.644;2024-01-15T12:32:14;13.80;;;5.77;;
18647;SDS011;9453;50.294;18.644;2024-01-15T12:34:41;16.67;;;6.53;;
18647;SDS011;9453;50.294;18.644;2024-01-15T12:37:09;11.80;;;4.83;;
18647;SDS011;9453;50.294;18.644;2024-01-15T12:39:37;19.27;;;7.10;;
18647;SDS011;9453;50.294;18.644;2024-01-15T12:42:08;14.30;;;6.13;;
18647;SDS011;9453;50.294;18.644;2024-01-15T12:44:35;12.87;;;5.60;;
18647;SDS011;9453;50.294;18.644;2024-01-15T12:47:06;15.17;;;5.53;;
18647;SDS011;9453;50.294;18.644;2024-01-15T12:49:33;15.00;;;5.20;;
18647;SDS011;9453;50.294;18.644;2024-01-15T12:52:07;14.87;;;4.80;;
18647;SDS011;9453;50.294;18.644;2024-01-15T12:54:35;15.33;;;5.83;;
18647;SDS011;9453;50.294;18.644;2024-01-15T12:57:02;11.83;;;5.20;;
18647;SDS011;9453;50.294;18.644;2024-01-15T12:59:31;16.73;;;6.03;;
18647;SDS011;9453;50.294;18.644;2024-01-15T13:01:58;15.93;;;5.93;;
18647;SDS011;9453;50.294;18.644;2024-01-15T13:04:25;18.93;;;5.73;;
18647;SDS011;9453;50.294;18.644;2024-01-15T13:06:52;14.03;;;4.77;;
18647;SDS011;9453;50.294;18.644;2024-01-15T13:09:20;17.63;;;5.63;;
18647;SDS011;9453;50.294;18.644;2024-01-15T13:11:46;11.77;;;4.27;;
18647;SDS011;9453;50.294;18.644;2024-01-15T13:14:13;10.70;;;4.47;;
18647;SDS011;9453;50.294;18.644;2024-01-15T13:16:41;10.30;;;4.33;;
18647;SDS011;9453;50.294;18.644;2024-01-15T13:19:09;14.70;;;5.67;;
18647;SDS011;9453;50.294;18.644;2024-01-15T13:21:38;15.10;;;5.60;;
18647;SDS011;9453;50.294;18.644;2024-01-15T13:24:08;13.23;;;4.67;;
18647;SDS011;9453;50.294;18.644;2024-01-15T13:26:36;14.87;;;4.70;;
18647;SDS011;9453;50.294;18.644;2024-01-15T13:29:03;12.83;;;5.20;;
18647;SDS011;9453;50.294;18.644;2024-01-15T13:31:30;11.83;;;4.20;;
18647;SDS011;9453;50.294;18.644;2024-01-15T13:33:59;10.67;;;4.83;;
18647;SDS011;9453;50.294;18.644;2024-01-15T13:36:26;11.77;;;4.70;;
18647;SDS011;9453;50.294;18.644;2024-01-15T13:38:54;12.17;;;4.90;;
18647;SDS011;9453;50.294;18.644;2024-01-15T13:41:21;12.87;;;5.47;;
18647;SDS011;9453;50.294;18.644;2024-01-15T13:43:52;18.03;;;5.47;;
18647;SDS011;9453;50.294;18.644;2024-01-15T13:46:20;11.90;;;5.00;;
18647;SDS011;9453;50.294;18.644;2024-01-15T13:48:49;14.00;;;5.57;;
18647;SDS011;9453;50.294;18.644;2024-01-15T13:51:18;15.50;;;5.13;;
18647;SDS011;9453;50.294;18.644;2024-01-15T13:53:45;12.53;;;5.07;;
18647;SDS011;9453;50.294;18.644;2024-01-15T13:56:12;13.97;;;4.97;;
18647;SDS011;9453;50.294;18.644;2024-01-15T13:58:39;13.77;;;4.90;;
18647;SDS011;9453;50.294;18.644;2024-01-15T14:01:06;10.47;;;4.63;;
18647;SDS011;9453;50.294;18.644;2024-01-15T14:03:33;14.10;;;4.73;;
18647;SDS011;9453;50.294;18.644;2024-01-15T14:06:00;12.37;;;4.97;;
18647;SDS011;9453;50.294;18.644;2024-01-15T14:08:30;12.63;;;4.83;;
18647;SDS011;9453;50.294;18.644;2024-01-15T14:10:57;10.60;;;4.13;;
18647;SDS011;9453;50.294;18.644;2024-01-15T14:13:24;13.90;;;5.20;;
18647;SDS011;9453;50.294;18.644;2024-01-15T14:15:53;12.47;;;5.23;;
18647;SDS011;9453;50.294;18.644;2024-01-15T14:18:22;13.43;;;5.00;;
18647;SDS011;9453;50.294;18.644;2024-01-15T14:20:49;11.37;;;4.73;;
18647;SDS011;9453;50.294;18.644;2024-01-15T14:23:19;12.13;;;5.43;;
18647;SDS011;9453;50.294;18.644;2024-01-15T14:25:47;10.73;;;4.53;;
18647;SDS011;9453;50.294;18.644;2024-01-15T14:28:14;10.73;;;4.90;;
18647;SDS011;9453;50.294;18.644;2024-01-15T14:30:41;12.10;;;4.63;;
18647;SDS011;9453;50.294;18.644;2024-01-15T14:33:08;14.17;;;4.53;;
18647;SDS011;9453;50.294;18.644;2024-01-15T14:35:36;13.93;;;5.50;;
18647;SDS011;9453;50.294;18.644;2024-01-15T14:38:03;15.63;;;5.23;;
18647;SDS011;9453;50.294;18.644;2024-01-15T14:40:30;12.73;;;4.53;;
18647;SDS011;9453;50.294;18.644;2024-01-15T14:42:59;15.23;;;4.97;;
18647;SDS011;9453;50.294;18.644;2024-01-15T14:45:26;13.87;;;4.83;;
18647;SDS011;9453;50.294;18.644;2024-01-15T14:47:53;11.17;;;4.30;;
18647;SDS011;9453;50.294;18.644;2024-01-15T14:50:22;10.90;;;4.43;;
18647;SDS011;9453;50.294;18.644;2024-01-15T14:52:49;11.07;;;4.73;;
18647;SDS011;9453;50.294;18.644;2024-01-15T14:55:16;11.20;;;4.67;;
18647;SDS011;9453;50.294;18.644;2024-01-15T14:57:43;20.37;;;6.60;;
18647;SDS011;9453;50.294;18.644;2024-01-15T15:00:11;20.63;;;5.93;;
18647;SDS011;9453;50.294;18.644;2024-01-15T15:02:41;14.53;;;4.93;;
18647;SDS011;9453;50.294;18.644;2024-01-15T15:05:09;11.80;;;4.17;;
18647;SDS011;9453;50.294;18.644;2024-01-15T15:07:41;12.27;;;5.03;;
18647;SDS011;9453;50.294;18.644;2024-01-15T15:10:08;17.13;;;6.40;;
18647;SDS011;9453;50.294;18.644;2024-01-15T15:12:36;11.50;;;4.60;;
18647;SDS011;9453;50.294;18.644;2024-01-15T15:15:03;8.83;;;3.97;;
18647;SDS011;9453;50.294;18.644;2024-01-15T15:17:35;15.50;;;5.03;;
18647;SDS011;9453;50.294;18.644;2024-01-15T15:20:04;9.63;;;4.10;;
18647;SDS011;9453;50.294;18.644;2024-01-15T15:22:32;10.83;;;5.00;;
18647;SDS011;9453;50.294;18.644;2024-01-15T15:24:59;11.43;;;3.77;;
18647;SDS011;9453;50.294;18.644;2024-01-15T15:27:26;7.63;;;3.63;;
18647;SDS011;9453;50.294;18.644;2024-01-15T15:29:54;10.80;;;4.27;;
18647;SDS011;9453;50.294;18.644;2024-01-15T15:32:21;15.80;;;4.50;;
18647;SDS011;9453;50.294;18.644;2024-01-15T15:34:50;10.43;;;3.63;;
18647;SDS011;9453;50.294;18.644;2024-01-15T15:37:17;8.23;;;3.80;;
18647;SDS011;9453;50.294;18.644;2024-01-15T15:39:43;8.00;;;3.60;;
18647;SDS011;9453;50.294;18.644;2024-01-15T15:42:10;12.00;;;4.83;;
18647;SDS011;9453;50.294;18.644;2024-01-15T15:44:38;12.87;;;4.60;;
18647;SDS011;9453;50.294;18.644;2024-01-15T15:47:10;11.20;;;4.80;;
18647;SDS011;9453;50.294;18.644;2024-01-15T15:49:39;14.47;;;4.93;;
18647;SDS011;9453;50.294;18.644;2024-01-15T15:52:07;12.43;;;4.10;;
18647;SDS011;9453;50.294;18.644;2024-01-15T15:54:34;11.13;;;4.80;;
18647;SDS011;9453;50.294;18.644;2024-01-15T15:57:03;11.37;;;4.10;;
18647;SDS011;9453;50.294;18.644;2024-01-15T15:59:30;10.63;;;4.77;;
18647;SDS011;9453;50.294;18.644;2024-01-15T16:01:58;12.07;;;4.33;;
18647;SDS011;9453;50.294;18.644;2024-01-15T16:04:25;11.23;;;4.03;;
18647;SDS011;9453;50.294;18.644;2024-01-15T16:06:52;12.00;;;4.40;;
18647;SDS011;9453;50.294;18.644;2024-01-15T16:09:21;10.33;;;4.07;;
18647;SDS011;9453;50.294;18.644;2024-01-15T16:11:48;10.63;;;3.57;;
18647;SDS011;9453;50.294;18.644;2024-01-15T16:14:15;8.17;;;3.77;;
18647;SDS011;9453;50.294;18.644;2024-01-15T16:16:43;6.63;;;3.67;;
18647;SDS011;9453;50.294;18.644;2024-01-15T16:19:10;10.13;;;3.77;;
18647;SDS011;9453;50.294;18.644;2024-01-15T16:21:37;10.53;;;4.10;;
18647;SDS011;9453;50.294;18.644;2024-01-15T16:24:04;8.23;;;3.93;;
18647;SDS011;9453;50.294;18.644;2024-01-15T16:26:34;12.93;;;4.13;;
18647;SDS011;9453;50.294;18.644;2024-01-15T16:29:03;9.90;;;3.50;;
18647;SDS011;9453;50.294;18.644;2024-01-15T16:31:30;9.03;;;3.93;;
18647;SDS011;9453;50.294;18.644;2024-01-15T16:33:57;8.87;;;3.83;;
18647;SDS011;9453;50.294;18.644;2024-01-15T16:36:24;10.43;;;3.93;;
18647;SDS011;9453;50.294;18.644;2024-01-15T16:38:51;14.10;;;3.77;;
18647;SDS011;9453;50.294;18.644;2024-01-15T16:41:18;10.07;;;3.57;;
18647;SDS011;9453;50.294;18.644;2024-01-15T16:43:50;9.17;;;3.47;;
18647;SDS011;9453;50.294;18.644;2024-01-15T16:46:20;10.80;;;3.80;;
18647;SDS011;9453;50.294;18.644;2024-01-15T16:48:47;11.90;;;4.17;;
18647;SDS011;9453;50.294;18.644;2024-01-15T16:51:14;10.03;;;3.90;;
18647;SDS011;9453;50.294;18.644;2024-01-15T16:53:42;14.80;;;4.47;;
18647;SDS011;9453;50.294;18.644;2024-01-15T16:56:10;10.47;;;4.53;;
18647;SDS011;9453;50.294;18.644;2024-01-15T16:58:37;13.40;;;4.97;;
18647;SDS011;9453;50.294;18.644;2024-01-15T17:01:06;13.93;;;5.00;;
18647;SDS011;9453;50.294;18.644;2024-01-15T17:03:34;14.53;;;5.17;;
18647;SDS011;9453;50.294;18.644;2024-01-15T17:06:01;13.00;;;5.10;;
18647;SDS011;9453;50.294;18.644;2024-01-15T17:08:28;12.37;;;4.53;;
18647;SDS011;9453;50.294;18.644;2024-01-15T17:10:57;8.40;;;3.63;;
18647;SDS011;9453;50.294;18.644;2024-01-15T17:13:24;9.47;;;3.93;;
18647;SDS011;9453;50.294;18.644;2024-01-15T17:15:52;13.93;;;4.93;;
18647;SDS011;9453;50.294;18.644;2024-01-15T17:18:21;11.90;;;4.43;;
18647;SDS011;9453;50.294;18.644;2024-01-15T17:20:49;11.90;;;4.13;;
18647;SDS011;9453;50.294;18.644;2024-01-15T17:23:16;10.87;;;4.53;;
18647;SDS011;9453;50.294;18.644;2024-01-15T17:25:44;13.03;;;4.53;;
18647;SDS011;9453;50.294;18.644;2024-01-15T17:28:14;12.50;;;4.53;;
18647;SDS011;9453;50.294;18.644;2024-01-15T17:30:42;10.63;;;4.17;;
18647;SDS011;9453;50.294;18.644;2024-01-15T17:33:12;9.97;;;4.10;;
18647;SDS011;9453;50.294;18.644;2024-01-15T17:35:42;12.63;;;4.60;;
18647;SDS011;9453;50.294;18.644;2024-01-15T17:38:16;12.80;;;4.30;;
18647;SDS011;9453;50.294;18.644;2024-01-15T17:40:44;9.47;;;3.70;;
18647;SDS011;9453;50.294;18.644;2024-01-15T17:43:11;9.67;;;4.23;;
18647;SDS011;9453;50.294;18.644;2024-01-15T17:45:46;14.03;;;4.07;;
18647;SDS011;9453;50.294;18.644;2024-01-15T17:48:13;11.80;;;4.17;;
18647;SDS011;9453;50.294;18.644;2024-01-15T17:50:48;12.63;;;4.60;;
18647;SDS011;9453;50.294;18.644;2024-01-15T17:53:19;12.33;;;4.37;;
18647;SDS011;9453;50.294;18.644;2024-01-15T17:55:48;12.13;;;4.47;;
18647;SDS011;9453;50.294;18.644;2024-01-15T17:58:15;10.50;;;4.37;;
18647;SDS011;9453;50.294;18.644;2024-01-15T18:00:45;12.03;;;4.90;;
18647;SDS011;9453;50.294;18.644;2024-01-15T18:03:13;14.40;;;4.23;;
18647;SDS011;9453;50.294;18.644;2024-01-15T18:05:41;13.67;;;4.57;;
18647;SDS011;9453;50.294;18.644;2024-01-15T18:08:08;10.33;;;4.57;;
18647;SDS011;9453;50.294;18.644;2024-01-15T18:10:36;12.23;;;4.97;;
18647;SDS011;9453;50.294;18.644;2024-01-15T18:13:03;13.93;;;5.60;;
18647;SDS011;9453;50.294;18.644;2024-01-15T18:15:32;13.23;;;5.57;;
18647;SDS011;9453;50.294;18.644;2024-01-15T18:17:59;12.80;;;5.27;;
18647;SDS011;9453;50.294;18.644;2024-01-15T18:20:27;11.27;;;4.53;;
18647;SDS011;9453;50.294;18.644;2024-01-15T18:22:55;17.30;;;5.53;;
18647;SDS011;9453;50.294;18.644;2024-01-15T18:25:24;12.13;;;4.80;;
18647;SDS011;9453;50.294;18.644;2024-01-15T18:27:51;13.40;;;4.87;;
18647;SDS011;9453;50.294;18.644;2024-01-15T18:30:20;12.60;;;5.47;;
18647;SDS011;9453;50.294;18.644;2024-01-15T18:32:48;11.43;;;5.73;;
18647;SDS011;9453;50.294;18.644;2024-01-15T18:35:15;11.70;;;5.07;;
18647;SDS011;9453;50.294;18.644;2024-01-15T18:37:43;10.00;;;4.20;;
18647;SDS011;9453;50.294;18.644;2024-01-15T18:40:12;14.67;;;4.97;;
18647;SDS011;9453;50.294;18.644;2024-01-15T18:42:41;11.63;;;4.77;;
18647;SDS011;9453;50.294;18.644;2024-01-15T18:45:08;14.43;;;5.67;;
18647;SDS011;9453;50.294;18.644;2024-01-15T18:47:36;14.30;;;5.30;;
18647;SDS011;9453;50.294;18.644;2024-01-15T18:50:03;14.93;;;4.80;;
18647;SDS011;9453;50.294;18.644;2024-01-15T18:52:31;13.93;;;5.37;;
18647;SDS011;9453;50.294;18.644;2024-01-15T18:54:58;12.03;;;4.70;;
18647;SDS011;9453;50.294;18.644;2024-01-15T18:57:27;12.97;;;4.83;;
18647;SDS011;9453;50.294;18.644;2024-01-15T18:59:53;13.43;;;4.80;;
18647;SDS011;9453;50.294;18.644;2024-01-15T19:02:20;11.93;;;4.60;;
18647;SDS011;9453;50.294;18.644;2024-01-15T19:04:48;10.67;;;4.90;;
18647;SDS011;9453;50.294;18.644;2024-01-15T19:07:15;18.67;;;6.30;;
18647;SDS011;9453;50.294;18.644;2024-01-15T19:09:42;10.50;;;4.83;;
18647;SDS011;9453;50.294;18.644;2024-01-15T19:12:09;11.17;;;4.67;;
18647;SDS011;9453;50.294;18.644;2024-01-15T19:14:37;15.40;;;5.53;;
18647;SDS011;9453;50.294;18.644;2024-01-15T19:17:04;12.63;;;4.93;;
18647;SDS011;9453;50.294;18.644;2024-01-15T19:19:31;10.53;;;3.93;;
18647;SDS011;9453;50.294;18.644;2024-01-15T19:22:01;12.70;;;4.77;;
18647;SDS011;9453;50.294;18.644;2024-01-15T19:24:28;10.70;;;4.47;;
18647;SDS011;9453;50.294;18.644;2024-01-15T19:26:55;19.60;;;5.27;;
18647;SDS011;9453;50.294;18.644;2024-01-15T19:29:22;13.50;;;4.33;;
18647;SDS011;9453;50.294;18.644;2024-01-15T19:31:51;13.93;;;4.80;;
18647;SDS011;9453;50.294;18.644;2024-01-15T19:34:19;12.53;;;4.03;;
18647;SDS011;9453;50.294;18.644;2024-01-15T19:36:47;11.03;;;4.17;;
18647;SDS011;9453;50.294;18.644;2024-01-15T19:39:14;11.73;;;4.20;;
18647;SDS011;9453;50.294;18.644;2024-01-15T19:41:42;13.10;;;4.40;;
18647;SDS011;9453;50.294;18.644;2024-01-15T19:44:09;13.27;;;4.67;;
18647;SDS011;9453;50.294;18.644;2024-01-15T19:46:36;12.20;;;4.27;;
18647;SDS011;9453;50.294;18.644;2024-01-15T19:49:07;12.97;;;4.40;;
18647;SDS011;9453;50.294;18.644;2024-01-15T19:51:38;13.17;;;4.90;;